sensor_id;sensor_type;location;lat;lon;timestamp;temperature;humidity
10530;DHT22;5313;48.834;9.228;2022-12-29T00:01:01;9.60;99.90
10530;DHT22;5313;48.834;9.228;2022-12-29T00:03:27;9.60;99.90
10530;DHT22;5313;48.834;9.228;2022-12-29T00:05:56;9.50;99.90
10530;DHT22;5313;48.834;9.228;2022-12-29T00:08:22;9.60;99.90
10530;DHT22;5313;48.834;9.228;2022-12-29T00:11:17;9.60;99.90
10530;DHT22;5313;48.834;9.228;2022-12-29T00:13:43;9.60;99.90
10530;DHT22;5313;48.834;9.228;2022-12-29T00:16:28;9.70;99.90
10530;DHT22;5313;48.834;9.228;2022-12-29T00:18:54;9.70;99.90
10530;DHT22;5313;48.834;9.228;2022-12-29T00:21:21;9.80;99.90
10530;DHT22;5313;48.834;9.228;2022-12-29T00:24:08;9.80;99.90
10530;DHT22;5313;48.834;9.228;2022-12-29T00:27:10;9.80;99.90
10530;DHT22;5313;48.834;9.228;2022-12-29T00:29:55;9.70;99.90
10530;DHT22;5313;48.834;9.228;2022-12-29T00:32:38;9.70;99.90
10530;DHT22;5313;48.834;9.228;2022-12-29T00:35:47;9.70;99.90
10530;DHT22;5313;48.834;9.228;2022-12-29T00:38:16;9.70;99.90
10530;DHT22;5313;48.834;9.228;2022-12-29T00:41:00;9.70;99.90
10530;DHT22;5313;48.834;9.228;2022-12-29T00:43:44;9.70;99.90
10530;DHT22;5313;48.834;9.228;2022-12-29T00:46:28;9.60;99.90
10530;DHT22;5313;48.834;9.228;2022-12-29T00:48:53;9.60;99.90
10530;DHT22;5313;48.834;9.228;2022-12-29T00:51:37;9.60;99.90
10530;DHT22;5313;48.834;9.228;2022-12-29T00:54:03;9.50;99.90
10530;DHT22;5313;48.834;9.228;2022-12-29T00:56:28;9.40;99.90
10530;DHT22;5313;48.834;9.228;2022-12-29T00:58:54;9.40;99.90
10530;DHT22;5313;48.834;9.228;2022-12-29T01:01:19;9.40;99.90
10530;DHT22;5313;48.834;9.228;2022-12-29T01:03:45;9.40;99.90
10530;DHT22;5313;48.834;9.228;2022-12-29T01:06:11;9.50;99.90
10530;DHT22;5313;48.834;9.228;2022-12-29T01:08:36;9.60;99.90
10530;DHT22;5313;48.834;9.228;2022-12-29T01:11:08;9.60;99.90
10530;DHT22;5313;48.834;9.228;2022-12-29T01:13:34;9.70;99.90
10530;DHT22;5313;48.834;9.228;2022-12-29T01:16:00;9.80;99.90
10530;DHT22;5313;48.834;9.228;2022-12-29T01:18:26;9.90;99.90
10530;DHT22;5313;48.834;9.228;2022-12-29T01:21:05;10.10;99.90
10530;DHT22;5313;48.834;9.228;2022-12-29T01:23:31;10.10;99.90
10530;DHT22;5313;48.834;9.228;2022-12-29T01:25:57;10.10;99.90
10530;DHT22;5313;48.834;9.228;2022-12-29T01:28:23;10.20;99.90
10530;DHT22;5313;48.834;9.228;2022-12-29T01:30:48;9.70;99.90
10530;DHT22;5313;48.834;9.228;2022-12-29T01:33:14;10.30;99.90
10530;DHT22;5313;48.834;9.228;2022-12-29T01:35:40;10.40;99.90
10530;DHT22;5313;48.834;9.228;2022-12-29T01:38:05;10.40;99.90
10530;DHT22;5313;48.834;9.228;2022-12-29T01:40:31;10.40;99.90
10530;DHT22;5313;48.834;9.228;2022-12-29T01:42:57;10.40;99.90
10530;DHT22;5313;48.834;9.228;2022-12-29T01:45:22;10.40;99.90
10530;DHT22;5313;48.834;9.228;2022-12-29T01:47:52;10.40;99.90
10530;DHT22;5313;48.834;9.228;2022-12-29T01:50:32;10.50;99.90
10530;DHT22;5313;48.834;9.228;2022-12-29T01:55:33;10.50;99.90
10530;DHT22;5313;48.834;9.228;2022-12-29T01:58:01;10.50;99.90
10530;DHT22;5313;48.834;9.228;2022-12-29T02:00:28;10.60;99.90
10530;DHT22;5313;48.834;9.228;2022-12-29T02:02:54;10.60;99.90
10530;DHT22;5313;48.834;9.228;2022-12-29T02:05:49;10.60;99.90
10530;DHT22;5313;48.834;9.228;2022-12-29T02:08:19;10.60;99.90
10530;DHT22;5313;48.834;9.228;2022-12-29T02:10:45;10.60;99.90
10530;DHT22;5313;48.834;9.228;2022-12-29T02:13:11;10.60;99.90
10530;DHT22;5313;48.834;9.228;2022-12-29T02:16:13;10.60;99.90
10530;DHT22;5313;48.834;9.228;2022-12-29T02:33:26;10.80;99.90
10530;DHT22;5313;48.834;9.228;2022-12-29T02:36:21;10.80;99.90
10530;DHT22;5313;48.834;9.228;2022-12-29T02:38:59;10.70;99.90
10530;DHT22;5313;48.834;9.228;2022-12-29T02:44:03;10.70;99.90
10530;DHT22;5313;48.834;9.228;2022-12-29T02:46:37;10.50;99.90
10530;DHT22;5313;48.834;9.228;2022-12-29T02:54:25;10.60;99.90
10530;DHT22;5313;48.834;9.228;2022-12-29T02:57:29;10.60;99.90
10530;DHT22;5313;48.834;9.228;2022-12-29T03:00:03;10.70;99.90
10530;DHT22;5313;48.834;9.228;2022-12-29T03:05:34;10.90;99.90
10530;DHT22;5313;48.834;9.228;2022-12-29T03:11:01;10.90;99.90
10530;DHT22;5313;48.834;9.228;2022-12-29T03:13:44;10.90;99.90
10530;DHT22;5313;48.834;9.228;2022-12-29T03:16:33;10.90;99.90
10530;DHT22;5313;48.834;9.228;2022-12-29T03:19:14;11.00;99.90
10530;DHT22;5313;48.834;9.228;2022-12-29T03:21:44;11.00;99.90
10530;DHT22;5313;48.834;9.228;2022-12-29T03:24:32;11.10;99.90
10530;DHT22;5313;48.834;9.228;2022-12-29T03:27:01;11.20;99.90
10530;DHT22;5313;48.834;9.228;2022-12-29T03:29:30;11.20;99.90
10530;DHT22;5313;48.834;9.228;2022-12-29T03:31:58;11.30;99.90
10530;DHT22;5313;48.834;9.228;2022-12-29T03:34:25;11.40;99.90
10530;DHT22;5313;48.834;9.228;2022-12-29T03:37:04;11.50;99.90
10530;DHT22;5313;48.834;9.228;2022-12-29T03:39:31;11.40;99.90
10530;DHT22;5313;48.834;9.228;2022-12-29T03:42:03;11.40;99.90
10530;DHT22;5313;48.834;9.228;2022-12-29T03:44:34;11.40;99.90
10530;DHT22;5313;48.834;9.228;2022-12-29T03:47:01;11.50;99.90
10530;DHT22;5313;48.834;9.228;2022-12-29T03:49:27;11.50;99.90
10530;DHT22;5313;48.834;9.228;2022-12-29T03:51:53;11.50;99.90
10530;DHT22;5313;48.834;9.228;2022-12-29T03:54:19;11.50;99.90
10530;DHT22;5313;48.834;9.228;2022-12-29T03:56:44;11.50;99.90
10530;DHT22;5313;48.834;9.228;2022-12-29T03:59:09;11.50;99.90
10530;DHT22;5313;48.834;9.228;2022-12-29T04:01:35;11.50;99.90
10530;DHT22;5313;48.834;9.228;2022-12-29T04:04:00;11.30;99.90
10530;DHT22;5313;48.834;9.228;2022-12-29T04:06:26;11.30;99.90
10530;DHT22;5313;48.834;9.228;2022-12-29T04:08:51;11.30;99.90
10530;DHT22;5313;48.834;9.228;2022-12-29T04:11:17;11.20;99.90
10530;DHT22;5313;48.834;9.228;2022-12-29T04:13:42;11.20;99.90
10530;DHT22;5313;48.834;9.228;2022-12-29T04:16:08;11.20;99.90
10530;DHT22;5313;48.834;9.228;2022-12-29T04:18:34;11.30;99.90
10530;DHT22;5313;48.834;9.228;2022-12-29T04:20:59;11.30;99.90
10530;DHT22;5313;48.834;9.228;2022-12-29T04:23:26;10.70;99.90
10530;DHT22;5313;48.834;9.228;2022-12-29T04:25:52;11.30;99.90
10530;DHT22;5313;48.834;9.228;2022-12-29T04:28:17;11.40;99.90
10530;DHT22;5313;48.834;9.228;2022-12-29T04:30:44;11.60;99.90
10530;DHT22;5313;48.834;9.228;2022-12-29T04:33:09;11.70;99.90
10530;DHT22;5313;48.834;9.228;2022-12-29T04:35:35;11.60;99.90
10530;DHT22;5313;48.834;9.228;2022-12-29T04:38:01;11.70;99.90
10530;DHT22;5313;48.834;9.228;2022-12-29T04:40:27;11.70;99.90
10530;DHT22;5313;48.834;9.228;2022-12-29T04:42:52;11.90;99.90
10530;DHT22;5313;48.834;9.228;2022-12-29T04:45:18;11.90;99.90
10530;DHT22;5313;48.834;9.228;2022-12-29T04:47:43;11.90;99.90
10530;DHT22;5313;48.834;9.228;2022-12-29T04:50:09;11.80;99.90
10530;DHT22;5313;48.834;9.228;2022-12-29T04:52:35;11.70;99.90
10530;DHT22;5313;48.834;9.228;2022-12-29T04:55:00;11.80;99.90
10530;DHT22;5313;48.834;9.228;2022-12-29T04:57:27;11.80;99.90
10530;DHT22;5313;48.834;9.228;2022-12-29T04:59:52;11.90;99.90
10530;DHT22;5313;48.834;9.228;2022-12-29T05:02:18;11.80;99.90
10530;DHT22;5313;48.834;9.228;2022-12-29T05:04:43;11.80;99.90
10530;DHT22;5313;48.834;9.228;2022-12-29T05:07:09;11.70;99.90
10530;DHT22;5313;48.834;9.228;2022-12-29T05:09:35;11.70;99.90
10530;DHT22;5313;48.834;9.228;2022-12-29T05:12:00;11.80;99.90
10530;DHT22;5313;48.834;9.228;2022-12-29T05:14:26;11.90;99.90
10530;DHT22;5313;48.834;9.228;2022-12-29T05:16:52;11.90;99.90
10530;DHT22;5313;48.834;9.228;2022-12-29T05:19:17;11.90;99.90
10530;DHT22;5313;48.834;9.228;2022-12-29T05:21:43;12.00;99.90
10530;DHT22;5313;48.834;9.228;2022-12-29T05:24:09;11.90;99.90
10530;DHT22;5313;48.834;9.228;2022-12-29T05:26:35;11.90;99.90
10530;DHT22;5313;48.834;9.228;2022-12-29T05:29:00;11.90;99.90
10530;DHT22;5313;48.834;9.228;2022-12-29T05:31:26;11.90;99.90
10530;DHT22;5313;48.834;9.228;2022-12-29T05:33:52;11.90;99.90
10530;DHT22;5313;48.834;9.228;2022-12-29T05:36:18;11.90;99.90
10530;DHT22;5313;48.834;9.228;2022-12-29T05:38:44;12.00;99.90
10530;DHT22;5313;48.834;9.228;2022-12-29T05:41:09;12.00;99.90
10530;DHT22;5313;48.834;9.228;2022-12-29T05:43:35;12.00;99.90
10530;DHT22;5313;48.834;9.228;2022-12-29T05:46:01;12.00;99.90
10530;DHT22;5313;48.834;9.228;2022-12-29T05:48:26;11.90;99.90
10530;DHT22;5313;48.834;9.228;2022-12-29T05:50:52;11.80;99.90
10530;DHT22;5313;48.834;9.228;2022-12-29T05:53:18;11.80;99.90
10530;DHT22;5313;48.834;9.228;2022-12-29T05:55:45;11.80;99.90
10530;DHT22;5313;48.834;9.228;2022-12-29T05:58:11;11.80;99.90
10530;DHT22;5313;48.834;9.228;2022-12-29T06:00:36;11.80;99.90
10530;DHT22;5313;48.834;9.228;2022-12-29T06:03:02;11.80;99.90
10530;DHT22;5313;48.834;9.228;2022-12-29T06:05:28;11.80;99.90
10530;DHT22;5313;48.834;9.228;2022-12-29T06:07:53;11.90;99.90
10530;DHT22;5313;48.834;9.228;2022-12-29T06:10:19;11.90;99.90
10530;DHT22;5313;48.834;9.228;2022-12-29T06:12:44;11.90;99.90
10530;DHT22;5313;48.834;9.228;2022-12-29T06:15:10;11.90;99.90
10530;DHT22;5313;48.834;9.228;2022-12-29T06:17:36;11.90;99.90
10530;DHT22;5313;48.834;9.228;2022-12-29T06:20:02;11.90;99.90
10530;DHT22;5313;48.834;9.228;2022-12-29T06:22:28;11.90;99.90
10530;DHT22;5313;48.834;9.228;2022-12-29T06:24:53;11.80;99.90
10530;DHT22;5313;48.834;9.228;2022-12-29T06:27:19;11.80;99.90
10530;DHT22;5313;48.834;9.228;2022-12-29T06:29:44;11.80;99.90
10530;DHT22;5313;48.834;9.228;2022-12-29T06:32:10;11.90;99.90
10530;DHT22;5313;48.834;9.228;2022-12-29T06:34:35;12.00;99.90
10530;DHT22;5313;48.834;9.228;2022-12-29T06:37:01;11.90;99.90
10530;DHT22;5313;48.834;9.228;2022-12-29T06:39:27;11.90;99.90
10530;DHT22;5313;48.834;9.228;2022-12-29T06:41:53;11.90;99.90
10530;DHT22;5313;48.834;9.228;2022-12-29T06:44:20;11.90;99.90
10530;DHT22;5313;48.834;9.228;2022-12-29T06:46:46;11.90;99.90
10530;DHT22;5313;48.834;9.228;2022-12-29T06:49:12;11.80;99.90
10530;DHT22;5313;48.834;9.228;2022-12-29T06:51:37;11.80;99.90
10530;DHT22;5313;48.834;9.228;2022-12-29T06:54:03;11.80;99.90
10530;DHT22;5313;48.834;9.228;2022-12-29T06:56:28;11.70;99.90
10530;DHT22;5313;48.834;9.228;2022-12-29T06:58:54;11.70;99.90
10530;DHT22;5313;48.834;9.228;2022-12-29T07:01:20;11.70;99.90
10530;DHT22;5313;48.834;9.228;2022-12-29T07:03:45;11.60;99.90
10530;DHT22;5313;48.834;9.228;2022-12-29T07:06:11;11.60;99.90
10530;DHT22;5313;48.834;9.228;2022-12-29T07:08:36;11.60;99.90
10530;DHT22;5313;48.834;9.228;2022-12-29T07:11:02;11.50;99.90
10530;DHT22;5313;48.834;9.228;2022-12-29T07:13:28;11.40;99.90
10530;DHT22;5313;48.834;9.228;2022-12-29T07:15:54;11.30;99.90
10530;DHT22;5313;48.834;9.228;2022-12-29T07:18:19;11.20;99.90
10530;DHT22;5313;48.834;9.228;2022-12-29T07:20:44;11.10;99.90
10530;DHT22;5313;48.834;9.228;2022-12-29T07:23:10;11.10;99.90
10530;DHT22;5313;48.834;9.228;2022-12-29T07:25:36;11.10;99.90
10530;DHT22;5313;48.834;9.228;2022-12-29T07:28:03;11.10;99.90
10530;DHT22;5313;48.834;9.228;2022-12-29T07:30:28;11.10;99.90
10530;DHT22;5313;48.834;9.228;2022-12-29T07:32:54;11.10;99.90
10530;DHT22;5313;48.834;9.228;2022-12-29T07:35:19;11.10;99.90
10530;DHT22;5313;48.834;9.228;2022-12-29T07:37:45;11.10;99.90
10530;DHT22;5313;48.834;9.228;2022-12-29T07:40:11;11.10;99.90
10530;DHT22;5313;48.834;9.228;2022-12-29T07:42:36;11.10;99.90
10530;DHT22;5313;48.834;9.228;2022-12-29T07:45:02;11.10;99.90
10530;DHT22;5313;48.834;9.228;2022-12-29T07:47:28;11.10;99.90
10530;DHT22;5313;48.834;9.228;2022-12-29T07:49:53;11.20;99.90
10530;DHT22;5313;48.834;9.228;2022-12-29T07:52:19;11.30;99.90
10530;DHT22;5313;48.834;9.228;2022-12-29T07:54:44;11.20;99.90
10530;DHT22;5313;48.834;9.228;2022-12-29T07:57:10;11.20;99.90
10530;DHT22;5313;48.834;9.228;2022-12-29T07:59:36;11.20;99.90
10530;DHT22;5313;48.834;9.228;2022-12-29T08:02:02;11.30;99.90
10530;DHT22;5313;48.834;9.228;2022-12-29T08:04:27;11.30;99.90
10530;DHT22;5313;48.834;9.228;2022-12-29T08:06:53;11.40;99.90
10530;DHT22;5313;48.834;9.228;2022-12-29T08:09:18;11.40;99.90
10530;DHT22;5313;48.834;9.228;2022-12-29T08:11:44;11.40;99.90
10530;DHT22;5313;48.834;9.228;2022-12-29T08:14:10;11.50;99.90
10530;DHT22;5313;48.834;9.228;2022-12-29T08:16:36;11.50;99.90
10530;DHT22;5313;48.834;9.228;2022-12-29T08:19:01;11.60;99.90
10530;DHT22;5313;48.834;9.228;2022-12-29T08:21:27;11.60;99.90
10530;DHT22;5313;48.834;9.228;2022-12-29T08:23:53;11.70;99.90
10530;DHT22;5313;48.834;9.228;2022-12-29T08:26:19;11.70;99.90
10530;DHT22;5313;48.834;9.228;2022-12-29T08:28:45;11.70;99.90
10530;DHT22;5313;48.834;9.228;2022-12-29T08:31:10;11.70;99.90
10530;DHT22;5313;48.834;9.228;2022-12-29T08:33:36;11.70;99.90
10530;DHT22;5313;48.834;9.228;2022-12-29T08:36:03;11.80;99.90
10530;DHT22;5313;48.834;9.228;2022-12-29T08:38:29;11.90;99.90
10530;DHT22;5313;48.834;9.228;2022-12-29T08:40:56;11.90;99.90
10530;DHT22;5313;48.834;9.228;2022-12-29T08:43:22;11.90;99.90
10530;DHT22;5313;48.834;9.228;2022-12-29T08:45:48;11.90;99.90
10530;DHT22;5313;48.834;9.228;2022-12-29T08:48:13;11.90;99.90
10530;DHT22;5313;48.834;9.228;2022-12-29T08:50:43;11.90;99.90
10530;DHT22;5313;48.834;9.228;2022-12-29T08:53:09;11.90;99.90
10530;DHT22;5313;48.834;9.228;2022-12-29T08:55:35;11.90;99.90
10530;DHT22;5313;48.834;9.228;2022-12-29T08:58:00;11.40;99.90
10530;DHT22;5313;48.834;9.228;2022-12-29T09:00:26;11.90;99.90
10530;DHT22;5313;48.834;9.228;2022-12-29T09:02:52;12.00;99.90
10530;DHT22;5313;48.834;9.228;2022-12-29T09:05:17;12.00;99.90
10530;DHT22;5313;48.834;9.228;2022-12-29T09:07:43;12.00;99.90
10530;DHT22;5313;48.834;9.228;2022-12-29T09:10:08;12.00;99.90
10530;DHT22;5313;48.834;9.228;2022-12-29T09:12:34;12.00;99.90
10530;DHT22;5313;48.834;9.228;2022-12-29T09:15:00;12.10;99.90
10530;DHT22;5313;48.834;9.228;2022-12-29T09:17:25;12.10;99.90
10530;DHT22;5313;48.834;9.228;2022-12-29T09:20:07;12.10;99.90
10530;DHT22;5313;48.834;9.228;2022-12-29T09:22:34;12.20;99.90
10530;DHT22;5313;48.834;9.228;2022-12-29T09:25:00;12.20;99.90
10530;DHT22;5313;48.834;9.228;2022-12-29T09:27:25;12.20;99.90
10530;DHT22;5313;48.834;9.228;2022-12-29T09:29:51;12.20;99.90
10530;DHT22;5313;48.834;9.228;2022-12-29T09:32:16;12.30;99.90
10530;DHT22;5313;48.834;9.228;2022-12-29T09:34:42;12.20;99.90
10530;DHT22;5313;48.834;9.228;2022-12-29T09:37:07;12.30;99.90
10530;DHT22;5313;48.834;9.228;2022-12-29T09:39:33;12.30;99.90
10530;DHT22;5313;48.834;9.228;2022-12-29T09:42:23;12.40;99.90
10530;DHT22;5313;48.834;9.228;2022-12-29T09:45:06;12.50;99.90
10530;DHT22;5313;48.834;9.228;2022-12-29T09:47:34;12.60;99.90
10530;DHT22;5313;48.834;9.228;2022-12-29T09:50:09;12.70;99.90
10530;DHT22;5313;48.834;9.228;2022-12-29T09:52:58;12.80;99.90
10530;DHT22;5313;48.834;9.228;2022-12-29T09:55:39;12.90;99.90
10530;DHT22;5313;48.834;9.228;2022-12-29T09:58:30;13.00;99.90
10530;DHT22;5313;48.834;9.228;2022-12-29T10:01:28;13.20;99.90
10530;DHT22;5313;48.834;9.228;2022-12-29T10:03:56;13.40;99.90
10530;DHT22;5313;48.834;9.228;2022-12-29T10:06:26;13.30;99.90
10530;DHT22;5313;48.834;9.228;2022-12-29T10:15:01;13.10;99.90
10530;DHT22;5313;48.834;9.228;2022-12-29T10:23:42;13.00;99.90
10530;DHT22;5313;48.834;9.228;2022-12-29T10:26:01;13.00;99.90
10530;DHT22;5313;48.834;9.228;2022-12-29T10:28:36;13.10;99.90
10530;DHT22;5313;48.834;9.228;2022-12-29T10:31:16;13.30;99.90
10530;DHT22;5313;48.834;9.228;2022-12-29T10:33:42;13.40;99.90
10530;DHT22;5313;48.834;9.228;2022-12-29T10:36:19;13.50;99.90
10530;DHT22;5313;48.834;9.228;2022-12-29T10:38:58;13.50;99.90
10530;DHT22;5313;48.834;9.228;2022-12-29T10:44:26;13.60;99.90
10530;DHT22;5313;48.834;9.228;2022-12-29T10:47:03;13.70;99.90
10530;DHT22;5313;48.834;9.228;2022-12-29T10:49:30;13.70;99.90
10530;DHT22;5313;48.834;9.228;2022-12-29T10:51:58;13.70;99.90
10530;DHT22;5313;48.834;9.228;2022-12-29T10:54:36;13.70;99.90
10530;DHT22;5313;48.834;9.228;2022-12-29T10:57:14;14.70;99.90
10530;DHT22;5313;48.834;9.228;2022-12-29T10:59:43;14.00;99.90
10530;DHT22;5313;48.834;9.228;2022-12-29T11:07:16;14.60;99.90
10530;DHT22;5313;48.834;9.228;2022-12-29T11:09:44;14.50;99.90
10530;DHT22;5313;48.834;9.228;2022-12-29T11:12:30;14.50;99.90
10530;DHT22;5313;48.834;9.228;2022-12-29T11:15:12;14.40;99.90
10530;DHT22;5313;48.834;9.228;2022-12-29T11:18:01;14.40;99.90
10530;DHT22;5313;48.834;9.228;2022-12-29T11:20:44;14.40;99.90
10530;DHT22;5313;48.834;9.228;2022-12-29T11:26:21;14.40;99.90
10530;DHT22;5313;48.834;9.228;2022-12-29T11:31:43;14.40;99.90
10530;DHT22;5313;48.834;9.228;2022-12-29T11:34:11;14.30;99.90
10530;DHT22;5313;48.834;9.228;2022-12-29T11:36:41;14.20;99.90
10530;DHT22;5313;48.834;9.228;2022-12-29T11:39:30;14.30;99.90
10530;DHT22;5313;48.834;9.228;2022-12-29T11:41:58;14.30;99.90
10530;DHT22;5313;48.834;9.228;2022-12-29T11:44:24;14.30;99.90
10530;DHT22;5313;48.834;9.228;2022-12-29T11:46:51;14.30;99.90
10530;DHT22;5313;48.834;9.228;2022-12-29T11:49:23;14.20;99.90
10530;DHT22;5313;48.834;9.228;2022-12-29T11:51:51;14.10;99.90
10530;DHT22;5313;48.834;9.228;2022-12-29T11:54:26;14.20;99.90
10530;DHT22;5313;48.834;9.228;2022-12-29T11:56:53;14.10;99.90
10530;DHT22;5313;48.834;9.228;2022-12-29T11:59:34;13.90;99.90
10530;DHT22;5313;48.834;9.228;2022-12-29T12:04:49;13.10;99.90
10530;DHT22;5313;48.834;9.228;2022-12-29T12:07:40;12.60;99.90
10530;DHT22;5313;48.834;9.228;2022-12-29T12:10:23;12.30;99.90
10530;DHT22;5313;48.834;9.228;2022-12-29T12:15:42;12.10;99.90
10530;DHT22;5313;48.834;9.228;2022-12-29T12:18:10;12.20;99.90
10530;DHT22;5313;48.834;9.228;2022-12-29T12:20:44;12.30;99.90
10530;DHT22;5313;48.834;9.228;2022-12-29T12:26:18;12.30;99.90
10530;DHT22;5313;48.834;9.228;2022-12-29T12:28:55;12.50;99.90
10530;DHT22;5313;48.834;9.228;2022-12-29T12:34:12;12.70;99.90
10530;DHT22;5313;48.834;9.228;2022-12-29T12:42:52;13.00;99.90
10530;DHT22;5313;48.834;9.228;2022-12-29T12:45:45;13.10;99.90
10530;DHT22;5313;48.834;9.228;2022-12-29T12:51:08;13.10;99.90
10530;DHT22;5313;48.834;9.228;2022-12-29T13:01:36;14.20;99.90
10530;DHT22;5313;48.834;9.228;2022-12-29T13:07:11;13.70;99.90
10530;DHT22;5313;48.834;9.228;2022-12-29T13:18:23;13.90;99.90
10530;DHT22;5313;48.834;9.228;2022-12-29T13:20:58;14.10;99.90
10530;DHT22;5313;48.834;9.228;2022-12-29T13:23:34;14.10;99.90
10530;DHT22;5313;48.834;9.228;2022-12-29T13:26:18;13.90;99.90
10530;DHT22;5313;48.834;9.228;2022-12-29T13:28:52;13.60;99.90
10530;DHT22;5313;48.834;9.228;2022-12-29T13:34:22;13.20;99.90
10530;DHT22;5313;48.834;9.228;2022-12-29T13:36:57;13.10;99.90
10530;DHT22;5313;48.834;9.228;2022-12-29T13:39:33;13.10;99.90
10530;DHT22;5313;48.834;9.228;2022-12-29T13:42:02;13.10;99.90
10530;DHT22;5313;48.834;9.228;2022-12-29T13:44:33;13.00;99.90
10530;DHT22;5313;48.834;9.228;2022-12-29T13:47:04;13.00;99.90
10530;DHT22;5313;48.834;9.228;2022-12-29T13:49:33;13.00;99.90
10530;DHT22;5313;48.834;9.228;2022-12-29T13:52:21;13.00;99.90
10530;DHT22;5313;48.834;9.228;2022-12-29T13:55:21;13.00;99.90
10530;DHT22;5313;48.834;9.228;2022-12-29T14:00:28;13.00;99.90
10530;DHT22;5313;48.834;9.228;2022-12-29T14:03:19;13.00;99.90
10530;DHT22;5313;48.834;9.228;2022-12-29T14:06:05;12.90;99.90
10530;DHT22;5313;48.834;9.228;2022-12-29T14:08:34;12.90;99.90
10530;DHT22;5313;48.834;9.228;2022-12-29T14:11:09;12.90;99.90
10530;DHT22;5313;48.834;9.228;2022-12-29T14:13:41;12.90;99.90
10530;DHT22;5313;48.834;9.228;2022-12-29T14:16:10;12.90;99.90
10530;DHT22;5313;48.834;9.228;2022-12-29T14:18:46;12.90;99.90
10530;DHT22;5313;48.834;9.228;2022-12-29T14:23:46;12.90;99.90
10530;DHT22;5313;48.834;9.228;2022-12-29T14:26:38;12.80;99.90
10530;DHT22;5313;48.834;9.228;2022-12-29T14:31:47;12.80;99.90
10530;DHT22;5313;48.834;9.228;2022-12-29T14:36:58;12.80;99.90
10530;DHT22;5313;48.834;9.228;2022-12-29T14:39:42;12.80;99.90
10530;DHT22;5313;48.834;9.228;2022-12-29T14:44:46;12.90;99.90
10530;DHT22;5313;48.834;9.228;2022-12-29T14:47:32;12.80;99.90
10530;DHT22;5313;48.834;9.228;2022-12-29T14:50:20;12.70;99.90
10530;DHT22;5313;48.834;9.228;2022-12-29T14:53:01;12.70;99.90
10530;DHT22;5313;48.834;9.228;2022-12-29T14:55:39;12.70;99.90
10530;DHT22;5313;48.834;9.228;2022-12-29T14:58:14;12.70;99.90
10530;DHT22;5313;48.834;9.228;2022-12-29T15:00:41;12.60;99.90
10530;DHT22;5313;48.834;9.228;2022-12-29T15:03:23;12.60;99.90
10530;DHT22;5313;48.834;9.228;2022-12-29T15:05:52;12.60;99.90
10530;DHT22;5313;48.834;9.228;2022-12-29T15:08:24;12.70;99.90
10530;DHT22;5313;48.834;9.228;2022-12-29T15:11:32;12.60;99.90
10530;DHT22;5313;48.834;9.228;2022-12-29T15:14:33;12.70;99.90
10530;DHT22;5313;48.834;9.228;2022-12-29T15:16:59;12.60;99.90
10530;DHT22;5313;48.834;9.228;2022-12-29T15:19:26;12.60;99.90
10530;DHT22;5313;48.834;9.228;2022-12-29T15:21:53;12.60;99.90
10530;DHT22;5313;48.834;9.228;2022-12-29T15:24:19;12.50;99.90
10530;DHT22;5313;48.834;9.228;2022-12-29T15:26:51;12.50;99.90
10530;DHT22;5313;48.834;9.228;2022-12-29T15:29:41;12.40;99.90
10530;DHT22;5313;48.834;9.228;2022-12-29T15:34:45;12.50;99.90
10530;DHT22;5313;48.834;9.228;2022-12-29T15:37:18;12.50;99.90
10530;DHT22;5313;48.834;9.228;2022-12-29T15:39:44;12.50;99.90
10530;DHT22;5313;48.834;9.228;2022-12-29T15:42:23;12.40;99.90
10530;DHT22;5313;48.834;9.228;2022-12-29T15:44:52;12.40;99.90
10530;DHT22;5313;48.834;9.228;2022-12-29T15:47:18;12.50;99.90
10530;DHT22;5313;48.834;9.228;2022-12-29T15:49:48;12.20;99.90
10530;DHT22;5313;48.834;9.228;2022-12-29T15:52:21;11.60;99.90
10530;DHT22;5313;48.834;9.228;2022-12-29T15:54:52;11.00;99.90
10530;DHT22;5313;48.834;9.228;2022-12-29T15:57:30;10.60;99.90
10530;DHT22;5313;48.834;9.228;2022-12-29T15:59:56;10.30;99.90
10530;DHT22;5313;48.834;9.228;2022-12-29T16:02:22;10.20;99.90
10530;DHT22;5313;48.834;9.228;2022-12-29T16:04:48;10.10;99.90
10530;DHT22;5313;48.834;9.228;2022-12-29T16:07:25;10.10;99.90
10530;DHT22;5313;48.834;9.228;2022-12-29T16:09:58;10.00;99.90
10530;DHT22;5313;48.834;9.228;2022-12-29T16:12:28;10.00;99.90
10530;DHT22;5313;48.834;9.228;2022-12-29T16:14:58;10.00;99.90
10530;DHT22;5313;48.834;9.228;2022-12-29T16:17:27;10.00;99.90
10530;DHT22;5313;48.834;9.228;2022-12-29T16:19:54;10.00;99.90
10530;DHT22;5313;48.834;9.228;2022-12-29T16:22:33;10.00;99.90
10530;DHT22;5313;48.834;9.228;2022-12-29T16:25:03;10.00;99.90
10530;DHT22;5313;48.834;9.228;2022-12-29T16:27:40;10.00;99.90
10530;DHT22;5313;48.834;9.228;2022-12-29T16:30:25;10.00;99.90
10530;DHT22;5313;48.834;9.228;2022-12-29T16:32:53;10.00;99.90
10530;DHT22;5313;48.834;9.228;2022-12-29T16:35:22;10.00;99.90
10530;DHT22;5313;48.834;9.228;2022-12-29T16:38:21;10.00;99.90
10530;DHT22;5313;48.834;9.228;2022-12-29T16:40:51;10.00;99.90
10530;DHT22;5313;48.834;9.228;2022-12-29T16:46:38;10.00;99.90
10530;DHT22;5313;48.834;9.228;2022-12-29T16:48:51;10.00;99.90
10530;DHT22;5313;48.834;9.228;2022-12-29T16:51:23;10.00;99.90
10530;DHT22;5313;48.834;9.228;2022-12-29T16:53:53;10.00;99.90
10530;DHT22;5313;48.834;9.228;2022-12-29T16:56:25;10.00;99.90
10530;DHT22;5313;48.834;9.228;2022-12-29T17:01:45;10.00;99.90
10530;DHT22;5313;48.834;9.228;2022-12-29T17:04:12;9.90;99.90
10530;DHT22;5313;48.834;9.228;2022-12-29T17:06:38;9.80;99.90
10530;DHT22;5313;48.834;9.228;2022-12-29T17:09:30;9.70;99.90
10530;DHT22;5313;48.834;9.228;2022-12-29T17:11:58;9.60;99.90
10530;DHT22;5313;48.834;9.228;2022-12-29T17:16:59;9.50;99.90
10530;DHT22;5313;48.834;9.228;2022-12-29T17:19:36;9.60;99.90
10530;DHT22;5313;48.834;9.228;2022-12-29T17:22:08;9.60;99.90
10530;DHT22;5313;48.834;9.228;2022-12-29T17:24:34;9.50;99.90
10530;DHT22;5313;48.834;9.228;2022-12-29T17:27:01;9.40;99.90
10530;DHT22;5313;48.834;9.228;2022-12-29T17:29:33;9.40;99.90
10530;DHT22;5313;48.834;9.228;2022-12-29T17:32:02;9.40;99.90
10530;DHT22;5313;48.834;9.228;2022-12-29T17:34:28;9.40;99.90
10530;DHT22;5313;48.834;9.228;2022-12-29T17:36:54;9.30;99.90
10530;DHT22;5313;48.834;9.228;2022-12-29T17:39:20;9.30;99.90
10530;DHT22;5313;48.834;9.228;2022-12-29T17:41:45;9.30;99.90
10530;DHT22;5313;48.834;9.228;2022-12-29T17:44:19;9.40;99.90
10530;DHT22;5313;48.834;9.228;2022-12-29T17:46:47;9.50;99.90
10530;DHT22;5313;48.834;9.228;2022-12-29T17:49:14;9.50;99.90
10530;DHT22;5313;48.834;9.228;2022-12-29T17:51:44;9.50;99.90
10530;DHT22;5313;48.834;9.228;2022-12-29T17:54:22;9.50;99.90
10530;DHT22;5313;48.834;9.228;2022-12-29T17:56:48;9.40;99.90
10530;DHT22;5313;48.834;9.228;2022-12-29T17:59:14;9.40;99.90
10530;DHT22;5313;48.834;9.228;2022-12-29T18:01:42;9.40;99.90
10530;DHT22;5313;48.834;9.228;2022-12-29T18:04:11;9.40;99.90
10530;DHT22;5313;48.834;9.228;2022-12-29T18:06:38;9.50;99.90
10530;DHT22;5313;48.834;9.228;2022-12-29T18:09:03;9.30;99.90
10530;DHT22;5313;48.834;9.228;2022-12-29T18:11:33;9.40;99.90
10530;DHT22;5313;48.834;9.228;2022-12-29T18:13:59;9.50;99.90